sensor_id;sensor_type;location;lat;lon;timestamp;P1;durP1;ratioP1;P2;durP2;ratioP2
8474;SDS011;4274;52.012;8.448;2023-03-14T00:00:36;43.87;;;2.50;;
8474;SDS011;4274;52.012;8.448;2023-03-14T00:03:02;43.10;;;2.70;;
8474;SDS011;4274;52.012;8.448;2023-03-14T00:05:27;43.83;;;2.70;;
8474;SDS011;4274;52.012;8.448;2023-03-14T00:07:53;43.70;;;2.90;;
8474;SDS011;4274;52.012;8.448;2023-03-14T00:10:19;43.17;;;2.63;;
8474;SDS011;4274;52.012;8.448;2023-03-14T00:12:45;44.13;;;2.80;;
8474;SDS011;4274;52.012;8.448;2023-03-14T00:15:11;45.43;;;2.80;;
8474;SDS011;4274;52.012;8.448;2023-03-14T00:17:37;44.90;;;3.03;;
8474;SDS011;4274;52.012;8.448;2023-03-14T00:20:03;42.20;;;2.57;;
8474;SDS011;4274;52.012;8.448;2023-03-14T00:22:34;44.10;;;2.63;;
8474;SDS011;4274;52.012;8.448;2023-03-14T00:25:00;44.90;;;2.87;;
8474;SDS011;4274;52.012;8.448;2023-03-14T00:27:27;43.40;;;3.20;;
8474;SDS011;4274;52.012;8.448;2023-03-14T00:29:52;41.60;;;2.70;;
8474;SDS011;4274;52.012;8.448;2023-03-14T00:32:18;43.70;;;2.63;;
8474;SDS011;4274;52.012;8.448;2023-03-14T00:34:43;48.93;;;3.13;;
8474;SDS011;4274;52.012;8.448;2023-03-14T00:37:09;42.90;;;2.70;;
8474;SDS011;4274;52.012;8.448;2023-03-14T00:39:34;50.50;;;2.97;;
8474;SDS011;4274;52.012;8.448;2023-03-14T00:42:00;45.60;;;3.10;;
8474;SDS011;4274;52.012;8.448;2023-03-14T00:44:26;44.37;;;2.97;;
8474;SDS011;4274;52.012;8.448;2023-03-14T00:46:51;46.93;;;3.00;;
8474;SDS011;4274;52.012;8.448;2023-03-14T00:49:17;43.57;;;2.57;;
8474;SDS011;4274;52.012;8.448;2023-03-14T00:51:42;45.70;;;2.83;;
8474;SDS011;4274;52.012;8.448;2023-03-14T00:54:08;45.03;;;2.90;;
8474;SDS011;4274;52.012;8.448;2023-03-14T00:56:33;44.03;;;2.97;;
8474;SDS011;4274;52.012;8.448;2023-03-14T00:58:59;44.40;;;3.10;;
8474;SDS011;4274;52.012;8.448;2023-03-14T01:01:24;49.37;;;3.20;;
8474;SDS011;4274;52.012;8.448;2023-03-14T01:03:51;45.90;;;3.27;;
8474;SDS011;4274;52.012;8.448;2023-03-14T01:06:20;46.07;;;3.00;;
8474;SDS011;4274;52.012;8.448;2023-03-14T01:08:47;46.10;;;3.07;;
8474;SDS011;4274;52.012;8.448;2023-03-14T01:11:15;44.27;;;3.17;;
8474;SDS011;4274;52.012;8.448;2023-03-14T01:14:02;45.40;;;3.20;;
8474;SDS011;4274;52.012;8.448;2023-03-14T01:16:28;46.80;;;2.90;;
8474;SDS011;4274;52.012;8.448;2023-03-14T01:18:55;44.60;;;3.17;;
8474;SDS011;4274;52.012;8.448;2023-03-14T01:21:25;48.03;;;3.10;;
8474;SDS011;4274;52.012;8.448;2023-03-14T01:23:54;43.00;;;2.87;;
8474;SDS011;4274;52.012;8.448;2023-03-14T01:26:21;47.90;;;2.90;;
8474;SDS011;4274;52.012;8.448;2023-03-14T01:28:49;47.77;;;3.30;;
8474;SDS011;4274;52.012;8.448;2023-03-14T01:31:16;47.03;;;2.70;;
8474;SDS011;4274;52.012;8.448;2023-03-14T01:33:42;44.87;;;2.53;;
8474;SDS011;4274;52.012;8.448;2023-03-14T01:36:09;43.77;;;2.93;;
8474;SDS011;4274;52.012;8.448;2023-03-14T01:38:35;48.70;;;2.90;;
8474;SDS011;4274;52.012;8.448;2023-03-14T01:41:03;44.93;;;2.50;;
8474;SDS011;4274;52.012;8.448;2023-03-14T01:43:29;44.53;;;2.67;;
8474;SDS011;4274;52.012;8.448;2023-03-14T01:48:35;48.40;;;2.53;;
8474;SDS011;4274;52.012;8.448;2023-03-14T01:51:06;45.87;;;3.03;;
8474;SDS011;4274;52.012;8.448;2023-03-14T01:53:39;43.50;;;2.50;;
8474;SDS011;4274;52.012;8.448;2023-03-14T01:56:09;42.23;;;2.27;;
8474;SDS011;4274;52.012;8.448;2023-03-14T01:58:38;44.90;;;2.87;;
8474;SDS011;4274;52.012;8.448;2023-03-14T02:01:06;43.27;;;2.53;;
8474;SDS011;4274;52.012;8.448;2023-03-14T02:03:34;42.27;;;2.30;;
8474;SDS011;4274;52.012;8.448;2023-03-14T02:06:08;42.93;;;2.63;;
8474;SDS011;4274;52.012;8.448;2023-03-14T02:08:36;46.00;;;2.70;;
8474;SDS011;4274;52.012;8.448;2023-03-14T02:11:03;44.27;;;2.57;;
8474;SDS011;4274;52.012;8.448;2023-03-14T02:13:29;54.47;;;3.20;;
8474;SDS011;4274;52.012;8.448;2023-03-14T02:15:54;47.60;;;2.77;;
8474;SDS011;4274;52.012;8.448;2023-03-14T02:18:20;48.33;;;2.93;;
8474;SDS011;4274;52.012;8.448;2023-03-14T02:26:36;49.40;;;3.03;;
8474;SDS011;4274;52.012;8.448;2023-03-14T02:29:07;41.93;;;2.30;;
8474;SDS011;4274;52.012;8.448;2023-03-14T02:31:32;41.40;;;2.50;;
8474;SDS011;4274;52.012;8.448;2023-03-14T02:33:58;45.43;;;2.30;;
8474;SDS011;4274;52.012;8.448;2023-03-14T02:36:25;40.97;;;2.33;;
8474;SDS011;4274;52.012;8.448;2023-03-14T02:39:05;43.77;;;2.20;;
8474;SDS011;4274;52.012;8.448;2023-03-14T02:41:35;40.37;;;1.90;;
8474;SDS011;4274;52.012;8.448;2023-03-14T02:44:00;45.97;;;2.33;;
8474;SDS011;4274;52.012;8.448;2023-03-14T02:46:26;41.17;;;2.00;;
8474;SDS011;4274;52.012;8.448;2023-03-14T02:49:02;44.97;;;2.33;;
8474;SDS011;4274;52.012;8.448;2023-03-14T02:51:29;53.10;;;2.23;;
8474;SDS011;4274;52.012;8.448;2023-03-14T02:53:56;41.37;;;2.20;;
8474;SDS011;4274;52.012;8.448;2023-03-14T02:56:21;40.73;;;2.30;;
8474;SDS011;4274;52.012;8.448;2023-03-14T02:58:47;44.67;;;2.67;;
8474;SDS011;4274;52.012;8.448;2023-03-14T03:01:13;44.93;;;2.90;;
8474;SDS011;4274;52.012;8.448;2023-03-14T03:03:38;40.83;;;2.30;;
8474;SDS011;4274;52.012;8.448;2023-03-14T03:06:04;42.77;;;2.30;;
8474;SDS011;4274;52.012;8.448;2023-03-14T03:08:29;42.07;;;3.03;;
8474;SDS011;4274;52.012;8.448;2023-03-14T03:10:57;43.73;;;2.60;;
8474;SDS011;4274;52.012;8.448;2023-03-14T03:13:23;40.50;;;2.27;;
8474;SDS011;4274;52.012;8.448;2023-03-14T03:15:48;42.20;;;2.80;;
8474;SDS011;4274;52.012;8.448;2023-03-14T03:18:14;42.83;;;2.30;;
8474;SDS011;4274;52.012;8.448;2023-03-14T03:20:40;45.40;;;2.70;;
8474;SDS011;4274;52.012;8.448;2023-03-14T03:23:05;42.50;;;2.40;;
8474;SDS011;4274;52.012;8.448;2023-03-14T03:25:31;53.37;;;2.30;;
8474;SDS011;4274;52.012;8.448;2023-03-14T03:27:57;42.63;;;2.40;;
8474;SDS011;4274;52.012;8.448;2023-03-14T03:30:23;42.50;;;2.60;;
8474;SDS011;4274;52.012;8.448;2023-03-14T03:32:48;45.30;;;3.33;;
8474;SDS011;4274;52.012;8.448;2023-03-14T03:35:14;42.07;;;2.67;;
8474;SDS011;4274;52.012;8.448;2023-03-14T03:37:40;41.80;;;2.80;;
8474;SDS011;4274;52.012;8.448;2023-03-14T03:40:06;47.57;;;2.67;;
8474;SDS011;4274;52.012;8.448;2023-03-14T03:42:33;48.00;;;2.60;;
8474;SDS011;4274;52.012;8.448;2023-03-14T03:45:00;43.47;;;2.80;;
8474;SDS011;4274;52.012;8.448;2023-03-14T03:47:26;42.80;;;2.73;;
8474;SDS011;4274;52.012;8.448;2023-03-14T03:49:52;44.80;;;3.47;;
8474;SDS011;4274;52.012;8.448;2023-03-14T03:52:18;43.50;;;2.30;;
8474;SDS011;4274;52.012;8.448;2023-03-14T03:54:43;41.80;;;2.50;;
8474;SDS011;4274;52.012;8.448;2023-03-14T03:57:09;41.90;;;2.20;;
8474;SDS011;4274;52.012;8.448;2023-03-14T03:59:34;46.70;;;2.73;;
8474;SDS011;4274;52.012;8.448;2023-03-14T04:02:00;41.73;;;2.17;;
8474;SDS011;4274;52.012;8.448;2023-03-14T04:04:26;43.00;;;2.50;;
8474;SDS011;4274;52.012;8.448;2023-03-14T04:06:51;53.13;;;2.53;;
8474;SDS011;4274;52.012;8.448;2023-03-14T04:09:17;40.93;;;2.50;;
8474;SDS011;4274;52.012;8.448;2023-03-14T04:11:42;44.00;;;2.60;;
8474;SDS011;4274;52.012;8.448;2023-03-14T04:14:08;44.27;;;2.97;;
8474;SDS011;4274;52.012;8.448;2023-03-14T04:16:34;45.57;;;2.50;;
8474;SDS011;4274;52.012;8.448;2023-03-14T04:19:00;44.93;;;3.30;;
8474;SDS011;4274;52.012;8.448;2023-03-14T04:21:26;41.00;;;2.37;;
8474;SDS011;4274;52.012;8.448;2023-03-14T04:23:52;46.37;;;2.80;;
8474;SDS011;4274;52.012;8.448;2023-03-14T04:26:17;44.67;;;3.00;;
8474;SDS011;4274;52.012;8.448;2023-03-14T04:28:43;46.50;;;2.50;;
8474;SDS011;4274;52.012;8.448;2023-03-14T04:31:09;44.93;;;2.70;;
8474;SDS011;4274;52.012;8.448;2023-03-14T04:33:40;43.30;;;2.70;;
8474;SDS011;4274;52.012;8.448;2023-03-14T04:36:06;45.90;;;3.17;;
8474;SDS011;4274;52.012;8.448;2023-03-14T04:38:33;47.60;;;3.03;;
8474;SDS011;4274;52.012;8.448;2023-03-14T04:40:59;45.03;;;2.70;;
8474;SDS011;4274;52.012;8.448;2023-03-14T04:43:25;43.13;;;2.70;;
8474;SDS011;4274;52.012;8.448;2023-03-14T04:45:53;43.87;;;2.90;;
8474;SDS011;4274;52.012;8.448;2023-03-14T04:48:19;47.80;;;3.30;;
8474;SDS011;4274;52.012;8.448;2023-03-14T04:50:45;46.17;;;2.83;;
8474;SDS011;4274;52.012;8.448;2023-03-14T04:53:12;44.60;;;3.60;;
8474;SDS011;4274;52.012;8.448;2023-03-14T04:55:38;47.13;;;3.47;;
8474;SDS011;4274;52.012;8.448;2023-03-14T04:58:03;44.67;;;3.00;;
8474;SDS011;4274;52.012;8.448;2023-03-14T05:00:29;44.73;;;2.60;;
8474;SDS011;4274;52.012;8.448;2023-03-14T05:02:55;51.70;;;3.30;;
8474;SDS011;4274;52.012;8.448;2023-03-14T05:05:20;46.03;;;2.97;;
8474;SDS011;4274;52.012;8.448;2023-03-14T05:07:46;44.67;;;2.70;;
8474;SDS011;4274;52.012;8.448;2023-03-14T05:10:12;45.67;;;3.00;;
8474;SDS011;4274;52.012;8.448;2023-03-14T05:12:37;49.20;;;3.00;;
8474;SDS011;4274;52.012;8.448;2023-03-14T05:15:03;51.33;;;2.83;;
8474;SDS011;4274;52.012;8.448;2023-03-14T05:17:29;43.03;;;2.60;;
8474;SDS011;4274;52.012;8.448;2023-03-14T05:19:57;46.40;;;2.80;;
8474;SDS011;4274;52.012;8.448;2023-03-14T05:22:22;46.60;;;2.90;;
8474;SDS011;4274;52.012;8.448;2023-03-14T05:24:48;50.90;;;3.47;;
8474;SDS011;4274;52.012;8.448;2023-03-14T05:27:13;42.83;;;2.50;;
8474;SDS011;4274;52.012;8.448;2023-03-14T05:29:39;48.23;;;2.80;;
8474;SDS011;4274;52.012;8.448;2023-03-14T05:32:04;47.27;;;3.00;;
8474;SDS011;4274;52.012;8.448;2023-03-14T05:34:30;47.10;;;3.23;;
8474;SDS011;4274;52.012;8.448;2023-03-14T05:36:56;56.00;;;3.50;;
8474;SDS011;4274;52.012;8.448;2023-03-14T05:39:21;43.17;;;3.07;;
8474;SDS011;4274;52.012;8.448;2023-03-14T05:41:47;43.23;;;2.50;;
8474;SDS011;4274;52.012;8.448;2023-03-14T05:44:13;42.40;;;2.60;;
8474;SDS011;4274;52.012;8.448;2023-03-14T05:46:38;44.97;;;2.90;;
8474;SDS011;4274;52.012;8.448;2023-03-14T05:49:04;48.07;;;2.80;;
8474;SDS011;4274;52.012;8.448;2023-03-14T05:51:29;47.57;;;2.70;;
8474;SDS011;4274;52.012;8.448;2023-03-14T05:53:55;42.30;;;2.50;;
8474;SDS011;4274;52.012;8.448;2023-03-14T05:56:20;44.77;;;2.50;;
8474;SDS011;4274;52.012;8.448;2023-03-14T05:58:46;42.17;;;2.27;;
8474;SDS011;4274;52.012;8.448;2023-03-14T06:01:12;45.83;;;3.63;;
8474;SDS011;4274;52.012;8.448;2023-03-14T06:03:37;40.77;;;2.23;;
8474;SDS011;4274;52.012;8.448;2023-03-14T06:06:03;40.30;;;2.23;;
8474;SDS011;4274;52.012;8.448;2023-03-14T06:08:28;42.53;;;2.50;;
8474;SDS011;4274;52.012;8.448;2023-03-14T06:10:54;40.70;;;2.10;;
8474;SDS011;4274;52.012;8.448;2023-03-14T06:13:21;40.17;;;2.27;;
8474;SDS011;4274;52.012;8.448;2023-03-14T06:15:47;42.30;;;1.90;;
8474;SDS011;4274;52.012;8.448;2023-03-14T06:18:12;42.80;;;2.00;;
8474;SDS011;4274;52.012;8.448;2023-03-14T06:20:39;42.77;;;1.90;;
8474;SDS011;4274;52.012;8.448;2023-03-14T06:23:05;43.40;;;2.23;;
8474;SDS011;4274;52.012;8.448;2023-03-14T06:25:31;39.57;;;2.00;;
8474;SDS011;4274;52.012;8.448;2023-03-14T06:27:58;40.27;;;2.03;;
8474;SDS011;4274;52.012;8.448;2023-03-14T06:30:23;38.90;;;1.67;;
8474;SDS011;4274;52.012;8.448;2023-03-14T06:32:49;39.60;;;1.80;;
8474;SDS011;4274;52.012;8.448;2023-03-14T06:35:15;39.47;;;1.80;;
8474;SDS011;4274;52.012;8.448;2023-03-14T06:37:41;40.97;;;2.10;;
8474;SDS011;4274;52.012;8.448;2023-03-14T06:40:07;40.50;;;2.10;;
8474;SDS011;4274;52.012;8.448;2023-03-14T06:42:33;39.27;;;1.90;;
8474;SDS011;4274;52.012;8.448;2023-03-14T06:44:59;43.70;;;2.00;;
8474;SDS011;4274;52.012;8.448;2023-03-14T06:47:24;48.13;;;2.50;;
8474;SDS011;4274;52.012;8.448;2023-03-14T06:49:50;40.70;;;2.23;;
8474;SDS011;4274;52.012;8.448;2023-03-14T06:52:15;41.17;;;2.30;;
8474;SDS011;4274;52.012;8.448;2023-03-14T06:54:41;40.83;;;2.53;;
8474;SDS011;4274;52.012;8.448;2023-03-14T06:57:07;41.50;;;2.40;;
8474;SDS011;4274;52.012;8.448;2023-03-14T06:59:32;41.27;;;2.60;;
8474;SDS011;4274;52.012;8.448;2023-03-14T07:01:58;40.43;;;1.93;;
8474;SDS011;4274;52.012;8.448;2023-03-14T07:04:23;40.00;;;2.00;;
8474;SDS011;4274;52.012;8.448;2023-03-14T07:06:49;39.70;;;2.20;;
8474;SDS011;4274;52.012;8.448;2023-03-14T07:09:14;41.77;;;2.77;;
8474;SDS011;4274;52.012;8.448;2023-03-14T07:11:42;39.70;;;1.80;;
8474;SDS011;4274;52.012;8.448;2023-03-14T07:14:08;39.60;;;2.07;;
8474;SDS011;4274;52.012;8.448;2023-03-14T07:16:34;40.50;;;2.00;;
8474;SDS011;4274;52.012;8.448;2023-03-14T07:19:00;43.60;;;2.07;;
8474;SDS011;4274;52.012;8.448;2023-03-14T07:21:27;40.30;;;2.27;;
8474;SDS011;4274;52.012;8.448;2023-03-14T07:23:52;41.80;;;2.20;;
8474;SDS011;4274;52.012;8.448;2023-03-14T07:26:18;40.53;;;2.10;;
8474;SDS011;4274;52.012;8.448;2023-03-14T07:28:43;39.10;;;1.90;;
8474;SDS011;4274;52.012;8.448;2023-03-14T07:31:09;40.70;;;2.10;;
8474;SDS011;4274;52.012;8.448;2023-03-14T07:33:35;38.87;;;1.90;;
8474;SDS011;4274;52.012;8.448;2023-03-14T07:36:00;39.67;;;2.00;;
8474;SDS011;4274;52.012;8.448;2023-03-14T07:38:26;41.97;;;1.90;;
8474;SDS011;4274;52.012;8.448;2023-03-14T07:40:59;39.90;;;2.07;;
8474;SDS011;4274;52.012;8.448;2023-03-14T07:43:26;39.27;;;2.00;;
8474;SDS011;4274;52.012;8.448;2023-03-14T07:45:51;40.87;;;2.17;;
8474;SDS011;4274;52.012;8.448;2023-03-14T07:48:17;44.00;;;2.30;;
8474;SDS011;4274;52.012;8.448;2023-03-14T07:50:43;40.47;;;2.13;;
8474;SDS011;4274;52.012;8.448;2023-03-14T07:53:09;40.07;;;2.20;;
8474;SDS011;4274;52.012;8.448;2023-03-14T07:55:34;39.57;;;2.33;;
8474;SDS011;4274;52.012;8.448;2023-03-14T07:58:00;40.00;;;2.20;;
8474;SDS011;4274;52.012;8.448;2023-03-14T08:00:26;40.30;;;2.60;;
8474;SDS011;4274;52.012;8.448;2023-03-14T08:02:52;42.80;;;2.43;;
8474;SDS011;4274;52.012;8.448;2023-03-14T08:05:17;42.20;;;2.40;;
8474;SDS011;4274;52.012;8.448;2023-03-14T08:07:43;41.07;;;2.30;;
8474;SDS011;4274;52.012;8.448;2023-03-14T08:10:08;42.80;;;2.77;;
8474;SDS011;4274;52.012;8.448;2023-03-14T08:12:34;43.10;;;2.87;;
8474;SDS011;4274;52.012;8.448;2023-03-14T08:15:00;42.13;;;2.57;;
8474;SDS011;4274;52.012;8.448;2023-03-14T08:17:26;40.77;;;2.80;;
8474;SDS011;4274;52.012;8.448;2023-03-14T08:19:52;41.97;;;2.83;;
8474;SDS011;4274;52.012;8.448;2023-03-14T08:22:17;40.30;;;2.60;;
8474;SDS011;4274;52.012;8.448;2023-03-14T08:24:43;41.23;;;2.77;;
8474;SDS011;4274;52.012;8.448;2023-03-14T08:27:08;40.60;;;2.63;;
8474;SDS011;4274;52.012;8.448;2023-03-14T08:29:34;44.20;;;3.10;;
8474;SDS011;4274;52.012;8.448;2023-03-14T08:31:59;40.30;;;2.90;;
8474;SDS011;4274;52.012;8.448;2023-03-14T08:34:25;44.47;;;2.90;;
8474;SDS011;4274;52.012;8.448;2023-03-14T08:36:50;45.67;;;2.93;;
8474;SDS011;4274;52.012;8.448;2023-03-14T08:39:16;41.90;;;3.10;;
8474;SDS011;4274;52.012;8.448;2023-03-14T08:41:41;41.77;;;3.07;;
8474;SDS011;4274;52.012;8.448;2023-03-14T08:44:09;40.70;;;3.23;;
8474;SDS011;4274;52.012;8.448;2023-03-14T08:46:36;40.30;;;3.00;;
8474;SDS011;4274;52.012;8.448;2023-03-14T08:49:02;41.30;;;3.33;;
8474;SDS011;4274;52.012;8.448;2023-03-14T08:51:28;39.50;;;2.90;;
8474;SDS011;4274;52.012;8.448;2023-03-14T08:53:54;41.90;;;3.30;;
8474;SDS011;4274;52.012;8.448;2023-03-14T08:56:19;41.57;;;2.90;;
8474;SDS011;4274;52.012;8.448;2023-03-14T08:58:45;40.47;;;3.10;;
8474;SDS011;4274;52.012;8.448;2023-03-14T09:01:10;41.97;;;3.60;;
8474;SDS011;4274;52.012;8.448;2023-03-14T09:03:36;45.60;;;3.13;;
8474;SDS011;4274;52.012;8.448;2023-03-14T09:06:06;40.67;;;3.30;;
8474;SDS011;4274;52.012;8.448;2023-03-14T09:08:34;44.33;;;3.57;;
8474;SDS011;4274;52.012;8.448;2023-03-14T09:11:00;42.70;;;3.63;;
8474;SDS011;4274;52.012;8.448;2023-03-14T09:13:26;42.17;;;3.47;;
8474;SDS011;4274;52.012;8.448;2023-03-14T09:15:52;42.87;;;3.20;;
8474;SDS011;4274;52.012;8.448;2023-03-14T09:18:21;41.53;;;3.80;;
8474;SDS011;4274;52.012;8.448;2023-03-14T09:20:47;41.77;;;3.27;;
8474;SDS011;4274;52.012;8.448;2023-03-14T09:23:13;41.20;;;3.50;;
8474;SDS011;4274;52.012;8.448;2023-03-14T09:25:39;41.40;;;3.67;;
8474;SDS011;4274;52.012;8.448;2023-03-14T09:28:05;40.90;;;3.33;;
8474;SDS011;4274;52.012;8.448;2023-03-14T09:30:30;44.70;;;3.77;;
8474;SDS011;4274;52.012;8.448;2023-03-14T09:32:56;43.07;;;4.00;;
8474;SDS011;4274;52.012;8.448;2023-03-14T09:35:22;42.47;;;3.80;;
8474;SDS011;4274;52.012;8.448;2023-03-14T09:37:48;41.67;;;4.23;;
8474;SDS011;4274;52.012;8.448;2023-03-14T09:40:17;44.50;;;3.40;;
8474;SDS011;4274;52.012;8.448;2023-03-14T09:42:45;43.13;;;4.23;;
8474;SDS011;4274;52.012;8.448;2023-03-14T09:45:23;41.97;;;3.80;;
8474;SDS011;4274;52.012;8.448;2023-03-14T09:47:52;41.50;;;3.30;;
8474;SDS011;4274;52.012;8.448;2023-03-14T09:50:20;41.57;;;3.23;;
8474;SDS011;4274;52.012;8.448;2023-03-14T09:52:47;42.37;;;3.50;;
8474;SDS011;4274;52.012;8.448;2023-03-14T09:55:19;40.23;;;2.50;;
8474;SDS011;4274;52.012;8.448;2023-03-14T09:57:46;41.27;;;2.93;;
8474;SDS011;4274;52.012;8.448;2023-03-14T10:00:14;41.77;;;3.37;;
8474;SDS011;4274;52.012;8.448;2023-03-14T10:02:43;42.87;;;3.50;;
8474;SDS011;4274;52.012;8.448;2023-03-14T10:05:17;41.50;;;3.57;;
8474;SDS011;4274;52.012;8.448;2023-03-14T10:07:44;42.83;;;3.40;;
8474;SDS011;4274;52.012;8.448;2023-03-14T10:10:12;43.57;;;4.90;;
8474;SDS011;4274;52.012;8.448;2023-03-14T10:12:44;43.97;;;4.53;;
8474;SDS011;4274;52.012;8.448;2023-03-14T10:15:12;43.70;;;4.50;;
8474;SDS011;4274;52.012;8.448;2023-03-14T10:17:51;43.03;;;5.23;;
8474;SDS011;4274;52.012;8.448;2023-03-14T10:20:27;44.27;;;4.53;;
8474;SDS011;4274;52.012;8.448;2023-03-14T10:22:57;45.37;;;5.73;;
8474;SDS011;4274;52.012;8.448;2023-03-14T10:25:29;45.50;;;4.60;;
8474;SDS011;4274;52.012;8.448;2023-03-14T10:27:57;43.67;;;4.47;;
8474;SDS011;4274;52.012;8.448;2023-03-14T10:31:05;43.10;;;5.10;;
8474;SDS011;4274;52.012;8.448;2023-03-14T10:38:21;39.53;;;1.90;;
8474;SDS011;4274;52.012;8.448;2023-03-14T10:40:50;40.70;;;1.93;;
8474;SDS011;4274;52.012;8.448;2023-03-14T10:43:34;40.87;;;1.93;;
8474;SDS011;4274;52.012;8.448;2023-03-14T10:46:16;40.00;;;1.90;;
8474;SDS011;4274;52.012;8.448;2023-03-14T10:48:44;39.93;;;2.00;;
8474;SDS011;4274;52.012;8.448;2023-03-14T10:51:17;41.90;;;2.30;;
8474;SDS011;4274;52.012;8.448;2023-03-14T10:56:37;40.60;;;2.10;;
8474;SDS011;4274;52.012;8.448;2023-03-14T10:59:03;39.63;;;2.10;;
8474;SDS011;4274;52.012;8.448;2023-03-14T11:01:35;43.07;;;2.10;;
8474;SDS011;4274;52.012;8.448;2023-03-14T11:09:26;39.47;;;1.80;;
8474;SDS011;4274;52.012;8.448;2023-03-14T11:14:58;40.73;;;2.00;;
8474;SDS011;4274;52.012;8.448;2023-03-14T11:17:35;39.50;;;1.80;;
8474;SDS011;4274;52.012;8.448;2023-03-14T11:23:08;39.17;;;1.80;;
8474;SDS011;4274;52.012;8.448;2023-03-14T11:28:18;38.73;;;1.80;;
8474;SDS011;4274;52.012;8.448;2023-03-14T11:33:21;38.60;;;1.90;;
8474;SDS011;4274;52.012;8.448;2023-03-14T11:41:25;38.47;;;1.80;;
8474;SDS011;4274;52.012;8.448;2023-03-14T11:43:55;39.00;;;2.10;;
8474;SDS011;4274;52.012;8.448;2023-03-14T11:46:26;38.60;;;1.70;;
8474;SDS011;4274;52.012;8.448;2023-03-14T11:49:16;38.33;;;1.87;;
8474;SDS011;4274;52.012;8.448;2023-03-14T11:52:01;38.73;;;1.90;;
8474;SDS011;4274;52.012;8.448;2023-03-14T11:54:35;38.33;;;1.77;;
8474;SDS011;4274;52.012;8.448;2023-03-14T11:57:14;38.13;;;1.80;;
8474;SDS011;4274;52.012;8.448;2023-03-14T12:13:48;38.87;;;2.33;;
8474;SDS011;4274;52.012;8.448;2023-03-14T12:18:56;45.07;;;2.73;;
8474;SDS011;4274;52.012;8.448;2023-03-14T12:21:43;45.63;;;2.30;;
8474;SDS011;4274;52.012;8.448;2023-03-14T12:24:24;40.33;;;2.40;;
8474;SDS011;4274;52.012;8.448;2023-03-14T12:26:57;41.40;;;2.30;;
8474;SDS011;4274;52.012;8.448;2023-03-14T12:29:24;44.03;;;2.43;;
8474;SDS011;4274;52.012;8.448;2023-03-14T12:34:39;47.43;;;2.77;;
8474;SDS011;4274;52.012;8.448;2023-03-14T12:47:54;42.10;;;2.50;;
8474;SDS011;4274;52.012;8.448;2023-03-14T12:50:34;44.57;;;2.93;;
8474;SDS011;4274;52.012;8.448;2023-03-14T12:58:38;44.27;;;2.90;;
8474;SDS011;4274;52.012;8.448;2023-03-14T13:01:15;42.30;;;2.80;;
8474;SDS011;4274;52.012;8.448;2023-03-14T13:03:47;44.07;;;3.40;;
8474;SDS011;4274;52.012;8.448;2023-03-14T13:09:49;44.97;;;2.77;;
8474;SDS011;4274;52.012;8.448;2023-03-14T13:12:22;44.93;;;2.97;;
8474;SDS011;4274;52.012;8.448;2023-03-14T13:14:52;43.40;;;3.03;;
8474;SDS011;4274;52.012;8.448;2023-03-14T13:17:32;50.83;;;3.10;;
8474;SDS011;4274;52.012;8.448;2023-03-14T13:20:03;51.50;;;3.40;;
8474;SDS011;4274;52.012;8.448;2023-03-14T13:22:36;51.10;;;3.13;;
8474;SDS011;4274;52.012;8.448;2023-03-14T13:25:04;52.23;;;4.07;;
8474;SDS011;4274;52.012;8.448;2023-03-14T13:27:33;56.37;;;3.57;;
8474;SDS011;4274;52.012;8.448;2023-03-14T13:30:04;53.37;;;3.37;;
8474;SDS011;4274;52.012;8.448;2023-03-14T13:32:44;50.00;;;4.30;;
8474;SDS011;4274;52.012;8.448;2023-03-14T13:37:52;50.00;;;3.60;;
8474;SDS011;4274;52.012;8.448;2023-03-14T13:40:31;50.57;;;3.90;;
8474;SDS011;4274;52.012;8.448;2023-03-14T13:43:06;54.77;;;3.80;;
8474;SDS011;4274;52.012;8.448;2023-03-14T13:45:52;46.80;;;4.20;;
8474;SDS011;4274;52.012;8.448;2023-03-14T13:48:21;47.60;;;3.80;;
8474;SDS011;4274;52.012;8.448;2023-03-14T13:50:50;61.77;;;3.90;;
8474;SDS011;4274;52.012;8.448;2023-03-14T13:53:18;52.27;;;3.70;;
8474;SDS011;4274;52.012;8.448;2023-03-14T13:55:44;50.07;;;3.83;;
8474;SDS011;4274;52.012;8.448;2023-03-14T13:58:19;66.00;;;3.57;;
8474;SDS011;4274;52.012;8.448;2023-03-14T14:00:53;46.57;;;3.27;;
8474;SDS011;4274;52.012;8.448;2023-03-14T14:03:39;50.80;;;4.10;;
8474;SDS011;4274;52.012;8.448;2023-03-14T14:09:00;50.70;;;3.50;;
8474;SDS011;4274;52.012;8.448;2023-03-14T14:12:30;55.60;;;4.00;;
8474;SDS011;4274;52.012;8.448;2023-03-14T14:14:34;52.87;;;3.53;;
8474;SDS011;4274;52.012;8.448;2023-03-14T14:17:04;53.47;;;3.63;;
8474;SDS011;4274;52.012;8.448;2023-03-14T14:19:33;59.83;;;3.30;;
8474;SDS011;4274;52.012;8.448;2023-03-14T14:22:00;48.60;;;3.57;;
8474;SDS011;4274;52.012;8.448;2023-03-14T14:24:31;48.10;;;4.77;;
8474;SDS011;4274;52.012;8.448;2023-03-14T14:27:32;56.37;;;4.00;;
8474;SDS011;4274;52.012;8.448;2023-03-14T14:29:57;49.37;;;3.70;;
8474;SDS011;4274;52.012;8.448;2023-03-14T14:32:25;53.57;;;3.47;;
8474;SDS011;4274;52.012;8.448;2023-03-14T14:37:21;55.20;;;3.27;;
8474;SDS011;4274;52.012;8.448;2023-03-14T14:39:53;44.27;;;3.20;;
8474;SDS011;4274;52.012;8.448;2023-03-14T14:42:41;49.30;;;3.20;;
8474;SDS011;4274;52.012;8.448;2023-03-14T14:45:09;44.50;;;2.93;;
8474;SDS011;4274;52.012;8.448;2023-03-14T14:47:51;47.40;;;3.43;;
8474;SDS011;4274;52.012;8.448;2023-03-14T14:50:33;49.97;;;3.57;;
8474;SDS011;4274;52.012;8.448;2023-03-14T14:53:03;54.90;;;3.67;;
8474;SDS011;4274;52.012;8.448;2023-03-14T14:55:44;47.87;;;3.13;;
8474;SDS011;4274;52.012;8.448;2023-03-14T14:58:18;49.73;;;3.20;;
8474;SDS011;4274;52.012;8.448;2023-03-14T15:00:55;52.93;;;3.23;;
8474;SDS011;4274;52.012;8.448;2023-03-14T15:03:29;48.80;;;3.40;;
8474;SDS011;4274;52.012;8.448;2023-03-14T15:05:56;48.77;;;3.60;;
8474;SDS011;4274;52.012;8.448;2023-03-14T15:08:23;49.07;;;4.10;;
8474;SDS011;4274;52.012;8.448;2023-03-14T15:10:49;50.60;;;3.00;;
8474;SDS011;4274;52.012;8.448;2023-03-14T15:13:15;47.63;;;3.20;;
8474;SDS011;4274;52.012;8.448;2023-03-14T15:15:41;46.87;;;3.33;;
8474;SDS011;4274;52.012;8.448;2023-03-14T15:18:12;59.73;;;3.63;;
8474;SDS011;4274;52.012;8.448;2023-03-14T15:20:43;49.40;;;3.77;;
8474;SDS011;4274;52.012;8.448;2023-03-14T15:23:10;43.53;;;2.40;;
8474;SDS011;4274;52.012;8.448;2023-03-14T15:25:37;46.77;;;3.00;;
8474;SDS011;4274;52.012;8.448;2023-03-14T15:28:05;45.50;;;3.60;;
8474;SDS011;4274;52.012;8.448;2023-03-14T15:30:44;46.30;;;2.90;;
8474;SDS011;4274;52.012;8.448;2023-03-14T15:33:11;52.23;;;3.00;;
8474;SDS011;4274;52.012;8.448;2023-03-14T15:35:37;43.50;;;2.47;;
8474;SDS011;4274;52.012;8.448;2023-03-14T15:38:03;41.67;;;2.60;;
8474;SDS011;4274;52.012;8.448;2023-03-14T15:40:29;50.97;;;2.90;;
8474;SDS011;4274;52.012;8.448;2023-03-14T15:42:55;52.10;;;2.90;;
8474;SDS011;4274;52.012;8.448;2023-03-14T15:45:20;46.17;;;2.70;;
8474;SDS011;4274;52.012;8.448;2023-03-14T15:47:46;45.93;;;2.87;;
8474;SDS011;4274;52.012;8.448;2023-03-14T15:50:11;45.87;;;2.57;;
8474;SDS011;4274;52.012;8.448;2023-03-14T15:52:37;49.17;;;2.97;;
8474;SDS011;4274;52.012;8.448;2023-03-14T15:55:03;47.90;;;3.00;;
8474;SDS011;4274;52.012;8.448;2023-03-14T15:57:29;45.70;;;3.53;;
8474;SDS011;4274;52.012;8.448;2023-03-14T15:59:54;51.07;;;4.00;;
8474;SDS011;4274;52.012;8.448;2023-03-14T16:02:20;45.30;;;3.03;;
8474;SDS011;4274;52.012;8.448;2023-03-14T16:04:45;44.03;;;2.70;;
8474;SDS011;4274;52.012;8.448;2023-03-14T16:07:11;51.30;;;3.77;;
8474;SDS011;4274;52.012;8.448;2023-03-14T16:09:36;52.27;;;2.87;;
8474;SDS011;4274;52.012;8.448;2023-03-14T16:12:02;45.73;;;3.33;;
8474;SDS011;4274;52.012;8.448;2023-03-14T16:14:29;50.10;;;3.37;;
8474;SDS011;4274;52.012;8.448;2023-03-14T16:16:55;49.57;;;3.80;;
8474;SDS011;4274;52.012;8.448;2023-03-14T16:19:24;49.43;;;3.30;;
8474;SDS011;4274;52.012;8.448;2023-03-14T16:21:51;45.60;;;2.60;;
8474;SDS011;4274;52.012;8.448;2023-03-14T16:24:16;45.70;;;3.33;;
8474;SDS011;4274;52.012;8.448;2023-03-14T16:26:42;45.13;;;2.63;;
8474;SDS011;4274;52.012;8.448;2023-03-14T16:29:09;47.63;;;2.60;;
8474;SDS011;4274;52.012;8.448;2023-03-14T16:31:34;46.50;;;3.40;;